Time;durP1;ratioP1;P1;durP2;ratioP2;P2;SDS_P1;SDS_P2;PMS_P1;PMS_P2;Temp;Humidity;BMP_temperature;BMP_pressure;BME280_temperature;BME280_humidity;BME280_pressure;Samples;Min_cycle;Max_cycle;Signal;HPM_P1;HPM_P2
2023/07/24 00:01:18;;;;;;;6.10;3.40;;;;;;;22.40;100.00;-18628.59;5106598;28;20458;-77
2023/07/24 00:03:44;;;;;;;5.45;3.45;;;;;;;22.53;100.00;-18632.28;5100575;28;20647;-77
2023/07/24 00:06:09;;;;;;;4.50;3.20;;;;;;;22.40;100.00;-18628.59;5091618;28;20032;-78
2023/07/24 00:08:35;;;;;;;5.68;3.90;;;;;;;22.51;100.00;-18631.72;5101033;28;20034;-79
2023/07/24 00:11:02;;;;;;;5.32;3.60;;;;;;;22.21;100.00;-18623.56;5106301;28;20423;-78
2023/07/24 00:13:28;;;;;;;5.57;3.22;;;;;;;22.07;100.00;-18619.91;5104533;28;20759;-76
2023/07/24 00:15:53;;;;;;;5.53;3.10;;;;;;;22.09;100.00;-18620.44;5101705;28;20062;-78
2023/07/24 00:18:18;;;;;;;5.18;2.95;;;;;;;22.12;100.00;-18621.25;5106244;28;20109;-77
2023/07/24 00:20:44;;;;;;;5.07;3.38;;;;;;;22.13;100.00;-18621.53;5101327;28;20503;-78
2023/07/24 00:23:09;;;;;;;7.28;3.67;;;;;;;22.04;100.00;-18619.09;5101292;28;20403;-78
2023/07/24 00:25:34;;;;;;;5.63;3.60;;;;;;;21.98;100.00;-18617.47;5099595;28;20134;-78
2023/07/24 00:28:00;;;;;;;5.57;3.60;;;;;;;22.09;100.00;-18620.44;5083339;28;20069;-78
2023/07/24 00:30:25;;;;;;;6.75;3.75;;;;;;;22.12;100.00;-18621.13;5102903;28;20039;-77
2023/07/24 00:32:50;;;;;;;8.32;4.50;;;;;;;22.16;100.00;-18622.22;5103179;28;20046;-78
2023/07/24 00:35:16;;;;;;;6.75;4.00;;;;;;;22.19;100.00;-18623.16;5109118;28;20086;-77
2023/07/24 00:37:41;;;;;;;7.43;4.40;;;;;;;22.19;100.00;-18623.16;5104669;28;20796;-78
2023/07/24 00:40:07;;;;;;;6.13;3.80;;;;;;;22.33;100.00;-18626.84;5108918;28;20036;-80
2023/07/24 00:42:32;;;;;;;8.00;4.10;;;;;;;22.24;100.00;-18624.38;5106879;28;20040;-78
2023/07/24 00:44:58;;;;;;;8.63;3.97;;;;;;;22.25;100.00;-18624.66;5105221;28;20116;-77
2023/07/24 00:47:26;;;;;;;8.00;4.70;;;;;;;22.22;100.00;-18623.84;5092916;28;20028;-77
2023/07/24 00:49:51;;;;;;;8.00;4.13;;;;;;;22.18;100.00;-18622.75;5106197;28;20070;-77
2023/07/24 00:52:17;;;;;;;6.93;4.03;;;;;;;22.18;100.00;-18622.91;5108902;28;20066;-80
2023/07/24 00:54:43;;;;;;;5.18;3.55;;;;;;;22.12;100.00;-18621.13;5107084;28;20052;-75
2023/07/24 00:57:09;;;;;;;6.35;3.38;;;;;;;22.05;100.00;-18619.38;5104226;28;20035;-78
2023/07/24 00:59:35;;;;;;;6.05;3.90;;;;;;;22.13;100.00;-18621.53;5086009;28;20047;-78
2023/07/24 01:02:00;;;;;;;6.72;4.47;;;;;;;22.09;100.00;-18620.59;5106778;28;20687;-76
2023/07/24 01:04:26;;;;;;;7.75;3.92;;;;;;;22.08;100.00;-18620.31;5107708;28;20077;-77
2023/07/24 01:06:51;;;;;;;5.40;3.75;;;;;;;22.01;100.00;-18618.41;5108275;28;20158;-80
2023/07/24 01:09:17;;;;;;;5.15;3.42;;;;;;;22.08;100.00;-18620.19;5108602;28;20066;-82
2023/07/24 01:11:56;;;;;;;7.28;3.78;;;;;;;21.99;100.00;-18617.72;5104741;28;20039;-78
2023/07/24 01:14:26;;;;;;;7.75;4.75;;;;;;;21.84;100.00;-18613.94;5072017;28;20059;-80
2023/07/24 01:16:55;;;;;;;10.43;5.30;;;;;;;21.88;100.00;-18614.75;5107937;28;20043;-78
2023/07/24 01:19:37;;;;;;;6.40;4.10;;;;;;;21.79;100.00;-18612.56;5107759;28;20057;-78
2023/07/24 01:22:11;;;;;;;5.57;3.45;;;;;;;21.72;100.00;-18610.53;5099270;28;20046;-76
2023/07/24 01:24:45;;;;;;;8.05;3.58;;;;;;;21.76;100.00;-18611.75;5107291;28;20055;-78
2023/07/24 01:27:10;;;;;;;4.85;3.35;;;;;;;21.82;100.00;-18613.25;5102961;28;20044;-78
2023/07/24 01:29:35;;;;;;;6.15;3.33;;;;;;;21.81;100.00;-18613.13;5104517;28;20092;-81
2023/07/24 01:32:01;;;;;;;4.70;3.40;;;;;;;21.84;100.00;-18613.94;5107486;28;20086;-77
2023/07/24 01:34:26;;;;;;;5.68;3.40;;;;;;;21.82;100.00;-18613.25;5098334;28;20084;-77
2023/07/24 01:36:52;;;;;;;6.57;4.13;;;;;;;21.92;100.00;-18615.81;5105011;28;20139;-81
2023/07/24 01:39:20;;;;;;;7.10;4.20;;;;;;;21.99;100.00;-18617.88;5100911;28;20047;-77
2023/07/24 01:41:45;;;;;;;7.20;4.00;;;;;;;21.89;100.00;-18615.00;5105147;28;20547;-77
2023/07/24 01:44:11;;;;;;;7.43;4.18;;;;;;;21.89;100.00;-18615.00;5105720;28;20046;-77
2023/07/24 01:46:36;;;;;;;6.63;4.30;;;;;;;21.79;100.00;-18612.56;5091822;28;20047;-80
2023/07/24 01:49:02;;;;;;;6.75;4.35;;;;;;;21.87;100.00;-18614.59;5094434;28;20063;-76
2023/07/24 01:51:27;;;;;;;7.05;4.13;;;;;;;21.88;100.00;-18614.75;5104382;28;20041;-78
2023/07/24 01:53:53;;;;;;;6.30;3.70;;;;;;;21.89;100.00;-18615.00;5088573;28;20051;-79
2023/07/24 01:56:18;;;;;;;7.28;4.15;;;;;;;21.93;100.00;-18616.09;5107556;28;20123;-77
2023/07/24 01:58:43;;;;;;;5.55;3.38;;;;;;;21.78;100.00;-18612.16;5103850;28;20089;-77
2023/07/24 02:01:08;;;;;;;6.53;3.58;;;;;;;21.87;100.00;-18614.59;5105797;28;20494;-81
2023/07/24 02:03:34;;;;;;;5.65;3.00;;;;;;;21.85;100.00;-18614.06;5107676;28;20495;-77
2023/07/24 02:05:59;;;;;;;5.30;3.85;;;;;;;21.82;100.00;-18613.38;5107276;28;20418;-77
2023/07/24 02:08:24;;;;;;;7.57;3.88;;;;;;;21.78;100.00;-18612.31;5085745;28;20040;-76
2023/07/24 02:10:50;;;;;;;5.75;3.70;;;;;;;21.76;100.00;-18611.75;5103094;28;20119;-78
2023/07/24 02:13:16;;;;;;;5.88;3.70;;;;;;;21.74;100.00;-18611.22;5088328;28;20428;-77
2023/07/24 02:15:41;;;;;;;9.20;4.47;;;;;;;21.71;100.00;-18610.25;5107233;28;20087;-80
2023/07/24 02:18:06;;;;;;;6.60;4.43;;;;;;;21.69;100.00;-18609.84;5103051;28;20155;-79
2023/07/24 02:20:32;;;;;;;9.68;4.22;;;;;;;21.82;100.00;-18613.38;5097702;28;20052;-76
2023/07/24 02:22:57;;;;;;;6.25;4.18;;;;;;;21.84;100.00;-18613.94;5105019;28;20055;-78
2023/07/24 02:25:22;;;;;;;6.88;4.60;;;;;;;21.76;100.00;-18611.63;5105478;28;20039;-75
2023/07/24 02:27:48;;;;;;;6.63;4.18;;;;;;;21.68;100.00;-18609.56;5107405;28;20056;-77
2023/07/24 02:30:13;;;;;;;6.57;3.95;;;;;;;;;;5104292;28;20039;-79
2023/07/24 02:32:38;;;;;;;8.20;4.77;;;;;;;21.83;100.00;-18613.66;5105449;28;20112;-77
2023/07/24 02:35:04;;;;;;;8.05;4.80;;;;;;;21.77;100.00;-18611.88;5084239;28;20841;-79
2023/07/24 02:37:30;;;;;;;9.30;4.70;;;;;;;21.62;100.00;-18607.94;5098501;28;20107;-78
2023/07/24 02:39:55;;;;;;;7.85;5.10;;;;;;;21.64;100.00;-18608.50;5104470;28;20119;-77
2023/07/24 02:42:20;;;;;;;9.40;5.18;;;;;;;21.60;100.00;-18607.53;5102055;28;20495;-78
2023/07/24 02:44:46;;;;;;;8.38;5.15;;;;;;;21.64;100.00;-18608.50;5101467;28;20947;-79
2023/07/24 02:47:11;;;;;;;5.90;4.20;;;;;;;21.57;100.00;-18606.72;5104671;28;20101;-78
2023/07/24 02:49:36;;;;;;;10.27;5.55;;;;;;;21.58;100.00;-18606.88;5088303;28;20184;-79
2023/07/24 02:52:02;;;;;;;8.90;4.88;;;;;;;21.49;100.00;-18604.41;5104936;28;20040;-78
2023/07/24 02:54:27;;;;;;;10.52;5.72;;;;;;;21.51;100.00;-18604.97;5099732;28;20641;-76
2023/07/24 02:56:53;;;;;;;9.68;5.50;;;;;;;21.54;100.00;-18605.78;5106171;28;20520;-78
2023/07/24 02:59:18;;;;;;;8.40;5.30;;;;;;;21.54;100.00;-18605.91;5102059;28;20574;-79
2023/07/24 03:01:43;;;;;;;10.10;5.35;;;;;;;21.51;100.00;-18605.09;5104981;28;20056;-77
2023/07/24 03:04:09;;;;;;;8.70;5.75;;;;;;;21.62;100.00;-18608.09;5102799;28;20043;-79
2023/07/24 03:06:34;;;;;;;8.65;6.03;;;;;;;21.57;100.00;-18606.59;5106179;28;20088;-79
2023/07/24 03:09:00;;;;;;;9.05;5.85;;;;;;;21.57;100.00;-18606.72;5105221;28;20031;-77
2023/07/24 03:11:26;;;;;;;10.68;6.10;;;;;;;21.56;100.00;-18606.44;5104267;28;20177;-78
2023/07/24 03:13:51;;;;;;;10.18;6.18;;;;;;;21.48;100.00;-18604.28;5102593;28;20034;-78
2023/07/24 03:16:22;;;;;;;12.23;5.82;;;;;;;21.42;100.00;-18602.50;5102457;28;20043;-79
2023/07/24 03:18:47;;;;;;;10.75;6.55;;;;;;;21.47;100.00;-18603.88;5105283;28;20039;-78
2023/07/24 03:21:13;;;;;;;9.63;6.88;;;;;;;21.47;100.00;-18604.00;5104374;28;20048;-79
2023/07/24 03:23:38;;;;;;;11.70;6.70;;;;;;;21.39;100.00;-18601.84;5086243;28;20079;-78
2023/07/24 03:26:03;;;;;;;9.63;6.47;;;;;;;21.49;100.00;-18604.41;5080968;28;20071;-79
2023/07/24 03:28:29;;;;;;;11.25;6.93;;;;;;;21.43;100.00;-18602.78;5084623;28;20075;-81
2023/07/24 03:30:54;;;;;;;11.88;6.43;;;;;;;21.32;100.00;-18600.06;5103932;28;20071;-77
2023/07/24 03:33:20;;;;;;;11.93;7.47;;;;;;;21.38;100.00;-18601.56;5102442;28;20087;-79
2023/07/24 03:35:46;;;;;;;12.13;7.05;;;;;;;21.36;100.00;-18601.00;5100467;28;20043;-79
2023/07/24 03:38:11;;;;;;;12.68;6.97;;;;;;;21.31;100.00;-18599.78;5104114;28;20056;-79
2023/07/24 03:40:36;;;;;;;13.00;7.63;;;;;;;21.42;100.00;-18602.50;5103551;28;20599;-79
2023/07/24 03:43:02;;;;;;;10.27;6.78;;;;;;;21.52;100.00;-18605.22;5103706;28;20133;-79
2023/07/24 03:45:27;;;;;;;12.90;8.23;;;;;;;21.39;100.00;-18601.97;5102710;28;20056;-79
2023/07/24 03:47:52;;;;;;;14.05;8.02;;;;;;;21.37;100.00;-18601.41;5103150;28;20040;-78
2023/07/24 03:50:18;;;;;;;12.38;7.40;;;;;;;21.27;100.00;-18598.69;5101999;28;20107;-78
2023/07/24 03:52:46;;;;;;;11.98;6.47;;;;;;;21.15;100.00;-18595.56;5103037;28;20554;-77
2023/07/24 03:55:14;;;;;;;13.07;7.10;;;;;;;21.15;100.00;-18595.44;5091753;28;20117;-78
2023/07/24 03:57:40;;;;;;;11.35;6.45;;;;;;;21.15;100.00;-18595.56;5082603;28;20074;-78
2023/07/24 04:00:06;;;;;;;11.38;7.25;;;;;;;21.21;100.00;-18597.06;5089469;28;20065;-77
2023/07/24 04:02:31;;;;;;;10.13;6.85;;;;;;;21.24;100.00;-18597.88;5098148;28;20063;-79
2023/07/24 04:04:59;;;;;;;11.70;6.28;;;;;;;21.22;100.00;-18597.34;5085384;28;20044;-77
2023/07/24 04:07:25;;;;;;;10.17;6.40;;;;;;;21.19;100.00;-18596.66;5098321;28;20044;-76
2023/07/24 04:09:50;;;;;;;10.27;5.07;;;;;;;21.10;100.00;-18594.22;5098076;28;20040;-75
2023/07/24 04:12:15;;;;;;;11.88;6.63;;;;;;;21.17;100.00;-18595.97;5097907;28;20043;-75
2023/07/24 04:14:41;;;;;;;9.65;5.88;;;;;;;21.15;100.00;-18595.44;5102563;28;20051;-76
2023/07/24 04:17:09;;;;;;;8.20;5.80;;;;;;;21.19;100.00;-18596.53;5104627;28;20039;-73
2023/07/24 04:19:34;;;;;;;9.93;5.30;;;;;;;21.17;100.00;-18596.13;5105375;28;20047;-75
2023/07/24 04:21:59;;;;;;;7.45;4.75;;;;;;;21.12;100.00;-18594.63;5101808;28;20517;-77
2023/07/24 04:24:25;;;;;;;9.70;5.47;;;;;;;21.14;100.00;-18595.31;5102075;28;20040;-77
2023/07/24 04:26:50;;;;;;;8.70;5.15;;;;;;;21.18;100.00;-18596.38;5102623;28;20044;-77
2023/07/24 04:29:15;;;;;;;10.45;6.30;;;;;;;21.23;100.00;-18597.63;5098402;28;20063;-77
2023/07/24 04:31:41;;;;;;;9.65;5.18;;;;;;;21.16;100.00;-18595.72;5101899;28;20055;-77
2023/07/24 04:34:06;;;;;;;8.70;5.28;;;;;;;21.10;100.00;-18594.09;5101334;28;20035;-78
2023/07/24 04:36:32;;;;;;;7.93;4.75;;;;;;;20.94;100.00;-18589.88;5101298;28;20039;-76
2023/07/24 04:38:57;;;;;;;10.27;4.78;;;;;;;21.04;100.00;-18592.44;5099918;28;20074;-76
2023/07/24 04:41:22;;;;;;;8.00;4.65;;;;;;;21.05;100.00;-18592.84;5101646;28;20521;-76
2023/07/24 04:43:48;;;;;;;6.60;4.28;;;;;;;21.07;100.00;-18593.25;5098376;28;20564;-77
2023/07/24 04:46:13;;;;;;;8.85;4.78;;;;;;;21.11;100.00;-18594.34;5102593;28;20104;-77
2023/07/24 04:48:38;;;;;;;6.20;3.88;;;;;;;21.23;100.00;-18597.63;5082945;28;20036;-76
2023/07/24 04:51:04;;;;;;;7.60;4.18;;;;;;;21.15;100.00;-18595.56;5102254;28;20043;-76
2023/07/24 04:53:29;;;;;;;6.60;4.35;;;;;;;21.16;100.00;-18595.72;5101625;28;20526;-77
2023/07/24 04:55:54;;;;;;;6.13;3.92;;;;;;;21.06;100.00;-18593.13;5100430;28;20398;-76
2023/07/24 04:58:20;;;;;;;6.88;4.10;;;;;;;21.02;100.00;-18591.91;5101514;28;20126;-76
2023/07/24 05:00:45;;;;;;;7.55;4.80;;;;;;;21.03;100.00;-18592.19;5098994;28;20067;-77
2023/07/24 05:03:11;;;;;;;6.47;3.83;;;;;;;20.88;100.00;-18588.22;5102962;28;20048;-76
2023/07/24 05:05:37;;;;;;;6.47;4.28;;;;;;;20.89;100.00;-18588.63;5097471;28;20727;-76
2023/07/24 05:08:02;;;;;;;5.97;4.00;;;;;;;20.86;100.00;-18587.81;5102858;28;20154;-76
2023/07/24 05:10:28;;;;;;;8.73;4.85;;;;;;;20.88;100.00;-18588.38;5102759;28;20035;-77
2023/07/24 05:12:56;;;;;;;8.73;5.10;;;;;;;20.93;100.00;-18589.72;5095544;28;20035;-77
2023/07/24 05:15:21;;;;;;;7.78;4.45;;;;;;;20.95;100.00;-18590.28;5101421;28;20071;-76
2023/07/24 05:17:47;;;;;;;7.03;5.00;;;;;;;20.95;100.00;-18590.28;5102315;28;20057;-77
2023/07/24 05:20:12;;;;;;;8.45;5.20;;;;;;;20.95;100.00;-18590.28;5098824;28;20035;-76
2023/07/24 05:22:37;;;;;;;8.02;4.93;;;;;;;20.92;100.00;-18589.47;5104746;28;20055;-77
2023/07/24 05:25:03;;;;;;;8.57;5.00;;;;;;;20.91;100.00;-18589.19;5101954;28;20044;-76
2023/07/24 05:27:29;;;;;;;8.70;5.57;;;;;;;20.86;100.00;-18587.81;5106243;28;20043;-76
2023/07/24 05:29:55;;;;;;;8.15;5.20;;;;;;;20.94;100.00;-18590.00;5103329;28;20119;-76
2023/07/24 05:32:20;;;;;;;8.52;6.25;;;;;;;20.85;100.00;-18587.41;5105258;28;20448;-77
2023/07/24 05:34:46;;;;;;;9.20;6.07;;;;;;;20.83;100.00;-18586.88;5085527;28;20059;-76
2023/07/24 05:37:11;;;;;;;7.32;6.18;;;;;;;20.87;100.00;-18588.09;5102423;28;20032;-76
2023/07/24 05:39:36;;;;;;;7.88;6.60;;;;;;;20.97;100.00;-18590.69;5103551;28;20047;-77
2023/07/24 05:42:02;;;;;;;9.15;6.32;;;;;;;20.98;100.00;-18590.94;5088532;28;20526;-76
2023/07/24 05:44:27;;;;;;;8.35;5.90;;;;;;;21.03;100.00;-18592.31;5104687;28;20048;-76
2023/07/24 05:46:53;;;;;;;8.02;6.32;;;;;;;21.02;100.00;-18591.91;5106742;28;20039;-77
2023/07/24 05:49:18;;;;;;;8.60;6.57;;;;;;;21.00;100.00;-18591.34;5104254;28;20043;-77
2023/07/24 05:51:43;;;;;;;8.93;6.32;;;;;;;20.91;100.00;-18589.19;5104372;28;20069;-77
2023/07/24 05:54:09;;;;;;;7.97;5.57;;;;;;;20.91;100.00;-18589.03;5106768;28;20036;-77
2023/07/24 05:56:34;;;;;;;7.40;5.82;;;;;;;20.94;100.00;-18590.00;5097835;28;20035;-76
2023/07/24 05:58:59;;;;;;;5.97;5.13;;;;;;;20.93;100.00;-18589.72;5104146;28;20543;-76
2023/07/24 06:01:25;;;;;;;5.55;4.93;;;;;;;20.89;100.00;-18588.50;5103943;28;20090;-78
2023/07/24 06:03:50;;;;;;;6.45;5.25;;;;;;;20.80;100.00;-18586.06;5106475;28;20078;-76
2023/07/24 06:06:15;;;;;;;6.53;5.10;;;;;;;20.62;100.00;-18581.44;5101227;28;20032;-76
2023/07/24 06:08:41;;;;;;;8.25;6.43;;;;;;;20.63;100.00;-18581.56;5104153;28;20048;-77
2023/07/24 06:11:06;;;;;;;6.65;5.82;;;;;;;20.80;100.00;-18586.19;5100586;28;20040;-77
2023/07/24 06:13:31;;;;;;;7.65;5.45;;;;;;;20.72;100.00;-18584.00;5102272;28;20499;-77
2023/07/24 06:15:57;;;;;;;6.72;6.03;;;;;;;20.85;100.00;-18587.56;5105738;28;20039;-77
2023/07/24 06:18:22;;;;;;;10.23;6.97;;;;;;;20.80;100.00;-18586.06;5085622;28;20435;-76
2023/07/24 06:20:52;;;;;;;8.00;6.28;;;;;;;20.69;100.00;-18583.19;5100888;28;20047;-78
2023/07/24 06:23:17;;;;;;;8.68;6.53;;;;;;;20.89;100.00;-18588.63;5105297;28;20048;-78
2023/07/24 06:25:43;;;;;;;7.55;6.68;;;;;;;20.85;100.00;-18587.56;5103626;28;20129;-76
2023/07/24 06:28:08;;;;;;;7.50;6.45;;;;;;;20.84;100.00;-18587.16;5106780;28;20078;-77
2023/07/24 06:30:36;;;;;;;8.88;6.88;;;;;;;20.95;100.00;-18590.28;5102716;28;20058;-77
2023/07/24 06:33:02;;;;;;;8.90;6.70;;;;;;;20.84;100.00;-18587.28;5102215;28;20073;-76
2023/07/24 06:35:27;;;;;;;8.05;6.82;;;;;;;20.92;100.00;-18589.31;5090296;27;20273;-76
2023/07/24 06:37:52;;;;;;;11.50;8.88;;;;;;;21.07;100.00;-18593.41;5101878;28;20131;-76
2023/07/24 06:40:18;;;;;;;12.07;7.82;;;;;;;21.00;100.00;-18591.34;5081295;28;20047;-78
2023/07/24 06:42:43;;;;;;;10.35;7.85;;;;;;;21.15;100.00;-18595.56;5103036;28;20104;-76
2023/07/24 06:45:09;;;;;;;12.02;8.43;;;;;;;21.35;100.00;-18600.88;5089806;28;20126;-77
2023/07/24 06:47:35;;;;;;;11.45;7.93;;;;;;;21.38;100.00;-18601.69;5103776;28;20047;-77
2023/07/24 06:50:00;;;;;;;11.77;9.00;;;;;;;21.33;100.00;-18600.19;5100138;28;21797;-77
2023/07/24 06:52:25;;;;;;;9.82;7.78;;;;;;;21.23;100.00;-18597.63;5101334;28;20861;-76
2023/07/24 06:54:51;;;;;;;9.85;7.25;;;;;;;21.05;100.00;-18592.72;5102345;28;20027;-78
2023/07/24 06:57:31;;;;;;;9.98;8.38;;;;;;;21.13;100.00;-18594.91;5089360;28;20078;-78
2023/07/24 06:59:57;;;;;;;13.10;8.52;;;;;;;21.07;100.00;-18593.25;5100223;28;20563;-78
2023/07/24 07:02:22;;;;;;;11.70;7.38;;;;;;;20.96;100.00;-18590.41;5107178;28;20119;-78
2023/07/24 07:04:47;;;;;;;11.98;8.40;;;;;;;21.08;100.00;-18593.53;5089222;28;20122;-76
2023/07/24 07:07:13;;;;;;;10.10;7.63;;;;;;;21.23;100.00;-18597.47;5086800;28;20092;-76
2023/07/24 07:09:38;;;;;;;12.10;8.30;;;;;;;21.30;100.00;-18599.53;5100745;28;20144;-79
2023/07/24 07:12:04;;;;;;;10.35;8.23;;;;;;;21.29;100.00;-18599.25;5090218;28;20076;-76
2023/07/24 07:14:29;;;;;;;12.48;8.30;;;;;;;21.23;100.00;-18597.63;5103441;28;20047;-76
2023/07/24 07:16:54;;;;;;;11.55;8.63;;;;;;;21.25;100.00;-18598.16;5103529;28;20047;-76
2023/07/24 07:19:20;;;;;;;12.60;9.75;;;;;;;21.51;100.00;-18604.97;5105271;28;20398;-77
2023/07/24 07:21:45;;;;;;;15.65;9.57;;;;;;;21.55;100.00;-18606.19;5096944;28;20051;-79
2023/07/24 07:24:10;;;;;;;13.48;8.90;;;;;;;21.40;100.00;-18602.09;5104385;28;20051;-77
2023/07/24 07:26:36;;;;;;;14.15;10.60;;;;;;;21.58;100.00;-18606.88;5104872;28;20464;-77
2023/07/24 07:29:01;;;;;;;13.65;10.18;;;;;;;21.71;100.00;-18610.41;5104394;28;20101;-77
2023/07/24 07:31:27;;;;;;;11.77;8.07;;;;;;;21.66;100.00;-18608.91;5099113;28;20043;-78
2023/07/24 07:33:52;;;;;;;17.23;9.35;;;;;;;21.58;100.00;-18606.88;5098007;28;20054;-78
2023/07/24 07:36:17;;;;;;;15.30;10.40;;;;;;;21.74;100.00;-18611.22;5105786;28;20035;-77
2023/07/24 07:38:43;;;;;;;14.20;10.18;;;;;;;21.69;100.00;-18609.84;5105980;28;20066;-78
2023/07/24 07:41:09;;;;;;;15.73;10.50;;;;;;;21.77;100.00;-18612.03;5105709;28;20571;-77
2023/07/24 07:43:36;;;;;;;13.95;8.85;;;;;;;21.75;100.00;-18611.47;5095873;28;20060;-77
2023/07/24 07:46:01;;;;;;;18.15;10.30;;;;;;;21.84;100.00;-18613.78;5101681;28;20055;-78
2023/07/24 07:48:27;;;;;;;15.10;9.77;;;;;;;21.70;100.00;-18610.13;5105604;28;20039;-77
2023/07/24 07:50:52;;;;;;;12.68;8.63;;;;;;;21.62;100.00;-18607.94;5105065;28;20040;-77
2023/07/24 07:53:17;;;;;;;13.85;10.05;;;;;;;22.38;100.00;-18628.06;5098737;28;20567;-78
2023/07/24 07:55:43;;;;;;;15.68;10.80;;;;;;;22.65;100.00;-18635.38;5106479;28;20059;-78
2023/07/24 07:58:08;;;;;;;15.30;10.15;;;;;;;22.53;100.00;-18632.28;5105690;28;20051;-77
2023/07/24 08:00:34;;;;;;;12.73;8.63;;;;;;;22.36;100.00;-18627.66;5097931;28;20085;-77
2023/07/24 08:03:00;;;;;;;15.75;10.93;;;;;;;22.50;100.00;-18631.31;5103088;28;20059;-77
2023/07/24 08:05:26;;;;;;;14.00;10.50;;;;;;;22.59;100.00;-18633.63;5105864;28;20044;-77
2023/07/24 08:07:51;;;;;;;17.77;10.32;;;;;;;22.62;100.00;-18634.56;5103729;28;20374;-77
2023/07/24 08:10:17;;;;;;;15.38;10.15;;;;;;;22.57;100.00;-18633.22;5101156;28;20055;-77
2023/07/24 08:12:43;;;;;;;15.65;9.10;;;;;;;22.55;100.00;-18632.66;5098318;28;20050;-78
2023/07/24 08:15:09;;;;;;;14.43;9.65;;;;;;;22.63;100.00;-18634.72;5087423;28;20035;-77
2023/07/24 08:17:34;;;;;;;15.43;9.65;;;;;;;22.64;100.00;-18634.97;5104524;28;20028;-77
2023/07/24 08:19:59;;;;;;;16.58;10.52;;;;;;;22.83;100.00;-18640.00;5087226;28;20062;-77
2023/07/24 08:22:25;;;;;;;15.55;9.65;;;;;;;22.89;100.00;-18641.63;5083556;28;20043;-78
2023/07/24 08:24:51;;;;;;;14.05;10.30;;;;;;;22.96;100.00;-18643.53;5105647;28;20043;-77
2023/07/24 08:27:17;;;;;;;13.88;9.18;;;;;;;22.83;100.00;-18640.00;5107869;28;20061;-76
2023/07/24 08:29:42;;;;;;;12.82;8.38;;;;;;;22.73;100.00;-18637.56;5107720;28;20036;-77
2023/07/24 08:32:08;;;;;;;12.52;8.57;;;;;;;22.84;100.00;-18640.28;5103593;28;20414;-76
2023/07/24 08:34:33;;;;;;;14.05;8.75;;;;;;;22.99;100.00;-18644.34;5105752;28;20115;-78
2023/07/24 08:36:58;;;;;;;11.35;8.10;;;;;;;23.29;100.00;-18652.34;5105370;28;20042;-77
2023/07/24 08:39:24;;;;;;;12.23;7.57;;;;;;;23.18;100.00;-18649.50;5105517;28;20496;-77
2023/07/24 08:41:49;;;;;;;9.23;6.93;;;;;;;22.87;100.00;-18641.09;5111601;28;20067;-78
2023/07/24 08:44:15;;;;;;;10.32;6.93;;;;;;;23.14;100.00;-18648.41;5102508;28;20126;-77
2023/07/24 08:46:45;;;;;;;10.15;7.25;;;;;;;22.98;100.00;-18644.06;5102729;28;20044;-77
2023/07/24 08:49:14;;;;;;;9.38;7.20;;;;;;;22.90;100.00;-18641.91;5103770;28;20446;-77
2023/07/24 08:51:44;;;;;;;14.30;8.20;;;;;;;23.05;100.00;-18645.97;5099419;28;20080;-78
2023/07/24 08:54:10;;;;;;;11.50;7.90;;;;;;;22.84;100.00;-18640.28;5083927;28;20293;-78
2023/07/24 08:56:46;;;;;;;11.63;7.70;;;;;;;22.81;100.00;-18639.47;5108915;28;20461;-77
2023/07/24 08:59:12;;;;;;;15.27;8.73;;;;;;;22.71;100.00;-18636.88;5104438;28;20032;-76
2023/07/24 09:01:37;;;;;;;11.88;7.22;;;;;;;22.54;100.00;-18632.41;5107056;28;20159;-77
2023/07/24 09:04:03;;;;;;;12.88;8.70;;;;;;;22.63;100.00;-18634.72;5096565;28;20403;-76
2023/07/24 09:06:28;;;;;;;12.45;8.02;;;;;;;22.51;100.00;-18631.59;5102811;28;20522;-76
2023/07/24 09:08:54;;;;;;;13.98;8.63;;;;;;;22.65;100.00;-18635.38;5108542;27;20049;-77
2023/07/24 09:11:19;;;;;;;12.88;8.45;;;;;;;22.70;100.00;-18636.75;5102300;28;20112;-76
2023/07/24 09:13:45;;;;;;;16.63;11.02;;;;;;;22.86;100.00;-18640.81;5105302;28;20048;-76
2023/07/24 09:16:24;;;;;;;16.15;10.98;;;;;;;22.95;100.00;-18643.25;5108510;28;20055;-77
2023/07/24 09:18:51;;;;;;;17.30;12.63;;;;;;;22.98;100.00;-18644.22;5108072;28;20481;-78
2023/07/24 09:21:27;;;;;;;16.08;12.32;;;;;;;22.97;100.00;-18643.94;5105607;28;20059;-76
2023/07/24 09:23:52;;;;;;;17.30;10.75;;;;;;;22.85;100.00;-18640.69;5100209;28;20074;-77
2023/07/24 09:26:18;;;;;;;18.88;11.70;;;;;;;22.78;100.00;-18638.66;5100560;28;20101;-77
2023/07/24 09:28:53;;;;;;;17.58;11.73;;;;;;;22.94;100.00;-18643.00;5087186;28;20075;-78
2023/07/24 09:31:22;;;;;;;16.55;11.57;;;;;;;22.73;100.00;-18637.44;5104440;28;20162;-78
2023/07/24 09:33:47;;;;;;;17.30;12.80;;;;;;;22.65;100.00;-18635.25;5104503;28;20040;-76
2023/07/24 09:36:13;;;;;;;19.75;14.68;;;;;;;22.67;100.00;-18635.94;5106055;28;20203;-77
2023/07/24 09:38:40;;;;;;;16.42;12.13;;;;;;;22.54;100.00;-18632.41;5093580;28;20062;-78
2023/07/24 09:41:06;;;;;;;18.80;13.23;;;;;;;22.40;100.00;-18628.59;5104954;28;20503;-77
2023/07/24 09:43:35;;;;;;;18.23;12.85;;;;;;;22.29;100.00;-18625.75;5106542;28;20039;-78
2023/07/24 09:46:05;;;;;;;19.10;12.02;;;;;;;22.30;100.00;-18626.16;5081793;28;20059;-77
2023/07/24 09:48:32;;;;;;;20.38;13.95;;;;;;;22.43;100.00;-18629.41;5108882;28;20123;-78
2023/07/24 09:50:59;;;;;;;18.27;12.68;;;;;;;22.58;100.00;-18633.50;5110300;28;20074;-79
2023/07/24 09:53:42;;;;;;;19.60;12.60;;;;;;;22.49;100.00;-18631.03;5106696;28;20052;-78
2023/07/24 09:56:09;;;;;;;19.35;12.57;;;;;;;22.40;100.00;-18628.59;5106789;28;20048;-78
2023/07/24 09:58:37;;;;;;;19.40;12.55;;;;;;;22.49;100.00;-18631.19;5102448;28;20126;-77
2023/07/24 10:01:08;;;;;;;19.75;13.93;;;;;;;22.68;100.00;-18636.19;5104652;28;20048;-78
2023/07/24 10:03:35;;;;;;;20.40;12.60;;;;;;;22.72;100.00;-18637.28;5105254;28;20044;-78
2023/07/24 10:06:01;;;;;;;19.02;12.13;;;;;;;22.60;100.00;-18634.03;5102964;28;20144;-77
2023/07/24 10:08:27;;;;;;;16.17;11.10;;;;;;;22.70;100.00;-18636.59;5105584;28;20046;-78
2023/07/24 10:10:53;;;;;;;19.73;11.98;;;;;;;22.88;100.00;-18641.50;5107461;28;20031;-77
2023/07/24 10:13:20;;;;;;;17.30;11.10;;;;;;;23.08;100.00;-18646.78;5104503;28;20619;-79
2023/07/24 10:15:47;;;;;;;16.48;10.88;;;;;;;23.18;100.00;-18649.50;5102760;28;20120;-78
2023/07/24 10:18:15;;;;;;;15.68;10.77;;;;;;;23.16;100.00;-18648.97;5083554;28;20050;-77
2023/07/24 10:20:42;;;;;;;13.63;9.20;;;;;;;23.11;100.00;-18647.47;5084005;28;20040;-76
2023/07/24 10:23:09;;;;;;;12.52;9.13;;;;;;;23.43;100.00;-18656.16;5103179;28;20036;-77
2023/07/24 10:25:40;;;;;;;12.68;8.60;;;;;;;23.45;100.00;-18656.56;5105351;28;20043;-76
2023/07/24 10:28:07;;;;;;;11.05;7.35;;;;;;;23.50;100.00;-18657.91;5101628;28;20035;-75
2023/07/24 10:30:43;;;;;;;9.93;6.50;;;;;;;23.41;100.00;-18655.59;5099910;28;20136;-76
2023/07/24 10:33:17;;;;;;;9.70;6.07;;;;;;;23.51;100.00;-18658.19;5100773;28;20483;-78
2023/07/24 10:35:48;;;;;;;9.25;6.07;;;;;;;23.55;100.00;-18659.13;5102204;28;20039;-76
2023/07/24 10:38:15;;;;;;;9.40;6.50;;;;;;;23.63;100.00;-18661.44;5075191;28;20544;-78
2023/07/24 10:40:42;;;;;;;9.38;5.93;;;;;;;23.89;100.00;-18668.22;5097961;27;20044;-74
2023/07/24 10:43:13;;;;;;;9.52;5.93;;;;;;;23.87;100.00;-18667.69;5099946;28;20085;-75
2023/07/24 10:45:58;;;;;;;7.20;5.60;;;;;;;24.14;100.00;-18674.88;5100903;28;21256;-78
2023/07/24 10:48:25;;;;;;;8.35;5.65;;;;;;;24.00;100.00;-18671.06;5101593;28;20058;-77
2023/07/24 10:50:57;;;;;;;11.13;5.80;;;;;;;23.98;100.00;-18670.53;5098798;28;20036;-76
2023/07/24 10:53:23;;;;;;;8.18;5.22;;;;;;;24.17;100.00;-18675.69;5104947;28;20040;-77
2023/07/24 10:55:53;;;;;;;7.63;4.78;;;;;;;24.07;100.00;-18672.97;5109320;28;20051;-76
2023/07/24 10:58:18;;;;;;;9.20;5.18;;;;;;;24.13;100.00;-18674.47;5104905;28;20047;-78
2023/07/24 11:00:44;;;;;;;6.68;4.88;;;;;;;24.08;100.00;-18673.38;5104563;28;20050;-77
2023/07/24 11:03:11;;;;;;;6.90;4.30;;;;;;;24.25;100.00;-18677.72;5107229;28;20039;-76
2023/07/24 11:05:41;;;;;;;7.53;4.70;;;;;;;24.17;100.00;-18675.69;5106002;28;20046;-76
2023/07/24 11:08:17;;;;;;;7.57;4.95;;;;;;;24.12;100.00;-18674.19;5105989;28;20028;-75